createdAt,value
2019-02-12T00:00:24.130Z,2.33
2019-02-12T00:05:26.204Z,1.60
2019-02-12T00:10:28.286Z,1.50
2019-02-12T00:15:30.353Z,1.50
2019-02-12T00:20:32.454Z,1.50
2019-02-12T00:25:34.702Z,2.13
2019-02-12T00:30:36.818Z,1.60
2019-02-12T00:35:38.872Z,1.97
2019-02-12T00:40:43.533Z,1.67
2019-02-12T00:45:45.689Z,1.37
2019-02-12T00:50:47.796Z,1.53
2019-02-12T00:55:49.928Z,1.20
2019-02-12T01:00:52.043Z,1.50
2019-02-12T01:05:54.080Z,1.30
2019-02-12T01:10:57.300Z,1.20
2019-02-12T01:15:59.422Z,1.47
2019-02-12T01:21:01.494Z,1.47
2019-02-12T01:26:03.624Z,1.30
2019-02-12T01:31:05.717Z,1.00
2019-02-12T01:36:07.761Z,1.13
2019-02-12T01:41:09.842Z,1.20
2019-02-12T01:46:12.050Z,1.30
2019-02-12T01:51:14.121Z,1.00
2019-02-12T01:56:16.178Z,1.43
2019-02-12T02:01:18.264Z,1.70
2019-02-12T02:06:20.493Z,1.27
2019-02-12T02:11:22.634Z,1.57
2019-02-12T02:16:24.702Z,1.33
2019-02-12T02:21:27.182Z,1.43
2019-02-12T02:26:29.344Z,1.40
2019-02-12T02:31:31.425Z,1.27
2019-02-12T02:36:33.503Z,1.10
2019-02-12T02:41:35.622Z,1.13
2019-02-12T02:46:37.720Z,1.13
2019-02-12T02:51:39.877Z,1.20
2019-02-12T02:56:42.005Z,1.00
2019-02-12T03:01:43.982Z,1.10
2019-02-12T03:06:46.064Z,0.93
2019-02-12T03:11:48.117Z,1.00
2019-02-12T03:16:50.173Z,0.93
2019-02-12T03:21:52.291Z,1.00
2019-02-12T03:26:56.883Z,1.20
2019-02-12T03:31:59.141Z,1.27
2019-02-12T03:37:01.242Z,1.10
2019-02-12T03:42:03.521Z,1.13
2019-02-12T03:47:05.570Z,1.10
2019-02-12T03:52:13.014Z,1.17
2019-02-12T03:57:11.689Z,1.23
2019-02-12T04:02:13.749Z,1.23
2019-02-12T04:07:15.837Z,1.23
2019-02-12T04:12:19.008Z,1.13
2019-02-12T04:17:21.120Z,0.70
2019-02-12T04:22:23.425Z,1.17
2019-02-12T04:27:25.550Z,0.90
2019-02-12T04:32:27.652Z,0.93
2019-02-12T04:37:29.732Z,0.90
2019-02-12T04:42:31.830Z,1.00
2019-02-12T04:47:33.937Z,1.00
2019-02-12T04:52:35.972Z,0.70
2019-02-12T04:57:38.000Z,1.10
2019-02-12T05:02:40.065Z,1.17
2019-02-12T05:07:44.004Z,0.80
2019-02-12T05:12:46.038Z,1.20
2019-02-12T05:17:48.110Z,0.90
2019-02-12T05:22:50.182Z,0.80
2019-02-12T05:27:54.194Z,1.20
2019-02-12T05:32:58.522Z,1.30
2019-02-12T05:38:00.618Z,0.93
2019-02-12T05:43:04.821Z,1.40
2019-02-12T05:48:06.909Z,1.37
2019-02-12T05:53:08.998Z,1.00
2019-02-12T05:58:11.064Z,1.20
2019-02-12T06:03:13.206Z,1.60
2019-02-12T06:08:15.281Z,1.00
2019-02-12T06:13:17.320Z,1.60
2019-02-12T06:18:19.452Z,0.90
2019-02-12T06:23:21.535Z,1.50
2019-02-12T06:28:23.935Z,1.20
2019-02-12T06:33:25.967Z,1.10
2019-02-12T06:38:27.970Z,1.47
2019-02-12T06:43:30.112Z,1.53
2019-02-12T06:48:32.217Z,1.33
2019-02-12T06:53:34.397Z,1.57
2019-02-12T06:58:36.610Z,1.77
2019-02-12T07:03:56.307Z,1.30
2019-02-12T07:09:27.728Z,1.70
2019-02-12T07:14:50.296Z,1.40
2019-02-12T07:20:28.130Z,1.10
2019-02-12T07:26:05.397Z,1.30
2019-02-12T07:31:26.142Z,1.27
2019-02-12T07:37:14.514Z,1.20
2019-02-12T07:42:54.558Z,2.37
2019-02-12T07:48:14.144Z,1.47
2019-02-12T07:53:35.086Z,1.60
2019-02-12T07:59:10.163Z,2.07
2019-02-12T08:04:59.086Z,2.20
2019-02-12T08:10:49.383Z,2.10
2019-02-12T08:16:36.725Z,1.87
2019-02-12T08:22:44.931Z,2.10
2019-02-12T08:28:52.099Z,2.47
2019-02-12T08:34:46.898Z,2.57
2019-02-12T08:40:31.044Z,2.93
2019-02-12T08:46:12.139Z,1.80
2019-02-12T08:51:57.387Z,2.40
2019-02-12T08:57:26.461Z,2.03
2019-02-12T09:03:05.390Z,1.97
2019-02-12T09:08:41.563Z,1.70
2019-02-12T09:13:55.513Z,1.37
2019-02-12T09:19:37.018Z,1.60
2019-02-12T09:25:14.561Z,1.17
2019-02-12T09:30:37.699Z,2.03
2019-02-12T09:36:07.355Z,1.87
2019-02-12T09:41:27.664Z,1.90
2019-02-12T09:47:07.617Z,1.90
2019-02-12T09:52:27.813Z,2.00
2019-02-12T09:58:11.833Z,1.97
2019-02-12T10:04:00.871Z,2.10
2019-02-12T10:09:40.656Z,1.57
2019-02-12T10:15:04.677Z,1.60
2019-02-12T10:20:23.908Z,1.87
2019-02-12T10:25:38.116Z,1.93
2019-02-12T10:31:03.651Z,1.70
2019-02-12T10:36:05.849Z,1.73
2019-02-12T10:41:07.985Z,2.43
2019-02-12T10:46:10.098Z,2.70
2019-02-12T10:51:12.244Z,2.20
2019-02-12T10:56:14.428Z,1.93
2019-02-12T11:01:16.580Z,2.03
2019-02-12T11:06:18.667Z,2.33
2019-02-12T11:11:20.762Z,1.90
2019-02-12T11:16:22.859Z,1.77
2019-02-12T11:21:24.908Z,1.43
2019-02-12T11:26:27.027Z,1.90
2019-02-12T11:31:29.077Z,1.80
2019-02-12T11:36:31.315Z,5.23
2019-02-12T11:41:33.408Z,2.07
2019-02-12T11:46:35.466Z,1.70
2019-02-12T11:51:37.507Z,1.80
2019-02-12T11:56:39.776Z,1.40
2019-02-12T12:01:41.830Z,2.07
2019-02-12T12:06:43.974Z,1.77
2019-02-12T12:11:46.108Z,2.00
2019-02-12T12:16:48.159Z,2.00
2019-02-12T12:21:50.390Z,1.83
2019-02-12T12:26:52.492Z,2.57
2019-02-12T12:31:54.535Z,2.73
2019-02-12T12:36:56.600Z,2.63
2019-02-12T12:41:58.647Z,2.53
2019-02-12T12:47:00.708Z,2.10
2019-02-12T12:52:02.789Z,2.17
2019-02-12T12:57:04.880Z,2.23
2019-02-12T13:02:06.994Z,2.67
2019-02-12T13:07:09.070Z,2.47
2019-02-12T13:12:12.382Z,1.60
2019-02-12T13:17:14.555Z,1.50
2019-02-12T13:22:16.688Z,1.40
2019-02-12T13:27:18.770Z,1.37
2019-02-12T13:32:20.870Z,1.60
2019-02-12T13:37:22.989Z,2.00
2019-02-12T13:42:25.048Z,1.60
2019-02-12T13:47:27.106Z,1.33
2019-02-12T13:52:29.354Z,1.80
2019-02-12T13:57:31.398Z,1.57
2019-02-12T14:02:33.373Z,1.80
2019-02-12T14:07:37.627Z,1.50
2019-02-12T14:12:39.794Z,1.57
2019-02-12T14:17:41.861Z,1.37
2019-02-12T14:22:43.988Z,2.43
2019-02-12T14:27:46.106Z,1.47
2019-02-12T14:32:48.176Z,1.47
2019-02-12T14:37:50.262Z,1.20
2019-02-12T14:42:53.439Z,1.40
2019-02-12T14:47:57.320Z,1.53
2019-02-12T14:53:01.534Z,1.83
2019-02-12T14:58:03.613Z,1.60
2019-02-12T15:03:05.830Z,2.10
2019-02-12T15:08:07.944Z,1.73
2019-02-12T15:13:10.024Z,1.50
2019-02-12T15:18:12.154Z,1.37
2019-02-12T15:23:14.245Z,1.67
2019-02-12T15:28:16.441Z,1.60
2019-02-12T15:33:18.624Z,2.20
2019-02-12T15:38:20.696Z,1.60
2019-02-12T15:43:22.809Z,1.97
2019-02-12T15:48:24.886Z,1.90
2019-02-12T15:53:27.011Z,1.77
2019-02-12T15:58:30.289Z,1.93
2019-02-12T16:03:34.021Z,1.80
2019-02-12T16:08:36.539Z,1.87
2019-02-12T16:13:38.619Z,1.60
2019-02-12T16:18:40.791Z,1.40
2019-02-12T16:23:42.928Z,2.63
2019-02-12T16:28:45.023Z,2.37
2019-02-12T16:33:47.104Z,4.07
2019-02-12T16:38:50.543Z,3.63
2019-02-12T16:43:52.685Z,3.10
2019-02-12T16:48:57.565Z,2.83
2019-02-12T16:53:59.798Z,2.40
2019-02-12T16:59:03.796Z,2.07
2019-02-12T17:04:06.238Z,2.30
2019-02-12T17:09:08.311Z,1.80
2019-02-12T17:14:10.410Z,1.80
2019-02-12T17:19:12.490Z,2.10
2019-02-12T17:24:14.554Z,2.47
2019-02-12T17:29:16.651Z,2.40
2019-02-12T17:34:18.862Z,2.30
2019-02-12T17:39:20.947Z,2.27
2019-02-12T17:44:23.053Z,2.50
2019-02-12T17:49:25.155Z,1.97
2019-02-12T17:54:27.541Z,2.30
2019-02-12T17:59:29.632Z,2.33
2019-02-12T18:04:33.850Z,2.23
2019-02-12T18:09:35.887Z,2.77
2019-02-12T18:14:37.914Z,2.57
2019-02-12T18:19:40.065Z,2.33
2019-02-12T18:24:42.143Z,2.30
2019-02-12T18:29:46.490Z,2.30
2019-02-12T18:34:48.733Z,2.90
2019-02-12T18:39:50.794Z,2.93
2019-02-12T18:44:52.867Z,2.87
2019-02-12T18:49:54.940Z,2.90
2019-02-12T18:54:57.073Z,2.70
2019-02-12T18:59:59.264Z,3.10
2019-02-12T19:05:01.348Z,2.17
2019-02-12T19:10:03.513Z,2.77
2019-02-12T19:15:08.784Z,2.70
2019-02-12T19:20:12.584Z,2.50
2019-02-12T19:25:16.120Z,2.83
2019-02-12T19:30:19.416Z,3.53
2019-02-12T19:35:21.595Z,2.97
2019-02-12T19:40:23.652Z,3.07
2019-02-12T19:45:28.150Z,3.40
2019-02-12T19:50:30.221Z,3.13
2019-02-12T19:55:32.298Z,3.30
2019-02-12T20:00:34.427Z,3.40
2019-02-12T20:05:36.659Z,3.00
2019-02-12T20:10:38.697Z,3.57
2019-02-12T20:15:42.007Z,3.63
2019-02-12T20:20:44.113Z,3.10
2019-02-12T20:25:47.928Z,3.03
2019-02-12T20:30:52.908Z,4.00
2019-02-12T20:35:54.945Z,4.53
2019-02-12T20:40:57.003Z,5.20
2019-02-12T20:45:59.162Z,5.33
2019-02-12T20:51:01.341Z,4.73
2019-02-12T20:56:03.540Z,4.60
2019-02-12T21:01:11.047Z,5.37
2019-02-12T21:06:13.163Z,4.67
2019-02-12T21:11:15.304Z,5.27
2019-02-12T21:16:17.410Z,5.20
2019-02-12T21:21:19.470Z,5.20
2019-02-12T21:26:21.533Z,4.60
2019-02-12T21:31:23.595Z,5.20
2019-02-12T21:36:25.651Z,4.77
2019-02-12T21:41:27.735Z,5.37
2019-02-12T21:46:29.797Z,6.97
2019-02-12T21:51:31.883Z,6.47
2019-02-12T21:56:34.000Z,6.20
2019-02-12T22:01:36.170Z,4.97
2019-02-12T22:06:38.354Z,5.63
2019-02-12T22:11:40.517Z,4.90
2019-02-12T22:16:42.654Z,4.77
2019-02-12T22:21:44.685Z,5.50
2019-02-12T22:26:46.745Z,5.00
2019-02-12T22:31:48.869Z,5.80
2019-02-12T22:36:50.977Z,5.07
2019-02-12T22:41:53.075Z,5.03
2019-02-12T22:46:55.132Z,4.30
2019-02-12T22:51:58.303Z,5.30
2019-02-12T22:57:00.669Z,4.57
2019-02-12T23:02:02.901Z,4.07
2019-02-12T23:07:05.377Z,4.23
2019-02-12T23:12:07.674Z,4.70
2019-02-12T23:17:09.709Z,4.20
2019-02-12T23:22:14.225Z,4.00
2019-02-12T23:27:16.481Z,3.83
2019-02-12T23:32:18.530Z,3.60
2019-02-12T23:37:22.425Z,4.30
2019-02-12T23:42:24.504Z,4.57
2019-02-12T23:47:26.573Z,5.10
2019-02-12T23:52:28.684Z,5.40
2019-02-12T23:57:30.782Z,4.67
